Time;durP1;ratioP1;P1;durP2;ratioP2;P2;SDS_P1;SDS_P2;PMS_P1;PMS_P2;Temp;Humidity;BMP_temperature;BMP_pressure;BME280_temperature;BME280_humidity;BME280_pressure;Samples;Min_cycle;Max_cycle;Signal;HPM_P1;HPM_P2
2022/05/29 00:01:32;;;;;;;10.05;1.80;;;9.90;99.90;;;;;;12171316;29;20061;-83
2022/05/29 00:07:34;;;;;;;5.82;1.85;;;9.90;99.90;;;;;;12168234;29;20060;-82
2022/05/29 00:13:36;;;;;;;10.57;2.03;;;10.00;99.90;;;;;;12184536;29;20575;-84
2022/05/29 00:19:38;;;;;;;9.13;2.03;;;9.90;99.90;;;;;;12168110;29;20147;-83
2022/05/29 00:25:43;;;;;;;11.38;2.22;;;9.90;99.90;;;;;;12161089;29;20056;-83
2022/05/29 00:31:44;;;;;;;8.25;2.00;;;10.00;99.90;;;;;;12171700;29;20107;-83
2022/05/29 00:37:47;;;;;;;10.23;1.92;;;9.90;99.90;;;;;;12179426;29;20115;-83
2022/05/29 00:44:12;;;;;;;9.68;2.30;;;9.70;99.90;;;;;;12169764;29;20578;-83
2022/05/29 00:50:20;;;;;;;9.57;2.17;;;9.70;99.90;;;;;;12176401;29;20774;-83
2022/05/29 00:56:22;;;;;;;7.97;1.80;;;9.80;99.90;;;;;;12187385;29;20119;-84
2022/05/29 01:02:23;;;;;;;12.05;2.20;;;9.60;99.90;;;;;;12174439;29;20147;-83
2022/05/29 01:08:30;;;;;;;10.00;2.28;;;9.90;99.90;;;;;;12168869;29;20146;-83
2022/05/29 01:15:07;;;;;;;9.68;2.53;;;9.60;99.90;;;;;;12157566;29;20768;-83
2022/05/29 01:21:44;;;;;;;8.82;2.33;;;9.70;99.90;;;;;;12162368;29;20110;-83
2022/05/29 01:28:12;;;;;;;9.20;2.35;;;9.70;99.90;;;;;;12162094;29;20067;-82
2022/05/29 01:34:35;;;;;;;11.15;2.63;;;9.80;99.90;;;;;;12112534;29;20548;-84
2022/05/29 01:40:36;;;;;;;9.43;2.47;;;9.80;99.90;;;;;;12202255;29;20064;-84
2022/05/29 01:46:38;;;;;;;9.75;2.60;;;9.80;99.90;;;;;;12202808;29;20052;-82
2022/05/29 01:52:50;;;;;;;9.65;2.63;;;9.70;99.90;;;;;;12180717;29;20080;-83
2022/05/29 01:58:58;;;;;;;14.00;3.30;;;9.90;99.90;;;;;;12185131;29;20064;-84
2022/05/29 02:05:07;;;;;;;10.02;2.50;;;9.80;99.90;;;;;;12183447;29;20076;-83
2022/05/29 02:11:23;;;;;;;9.32;2.28;;;9.70;99.90;;;;;;12163887;29;20511;-84
2022/05/29 02:17:38;;;;;;;10.48;2.35;;;9.50;99.90;;;;;;12160663;29;20090;-84
2022/05/29 02:23:44;;;;;;;7.25;2.70;;;9.60;99.90;;;;;;12171782;29;20617;-83
2022/05/29 02:29:46;;;;;;;14.48;3.20;;;9.70;99.90;;;;;;12184179;29;20116;-83
2022/05/29 02:35:52;;;;;;;11.70;3.15;;;9.50;99.90;;;;;;12182681;29;20130;-82
2022/05/29 02:42:14;;;;;;;9.27;2.90;;;9.50;99.90;;;;;;12166902;29;20055;-83
2022/05/29 02:48:33;;;;;;;9.10;2.92;;;9.40;99.90;;;;;;12140547;29;20150;-82
2022/05/29 02:54:35;;;;;;;11.30;2.80;;;9.40;99.90;;;;;;12153154;29;20108;-83
2022/05/29 03:00:46;;;;;;;10.60;3.15;;;9.50;99.90;;;;;;12148491;29;20120;-84
2022/05/29 03:07:04;;;;;;;11.75;2.95;;;9.60;99.90;;;;;;12172115;29;20060;-83
2022/05/29 03:13:43;;;;;;;8.25;2.58;;;9.70;99.90;;;;;;12152189;29;20569;-83
2022/05/29 03:20:03;;;;;;;12.68;3.03;;;9.70;99.90;;;;;;12164558;29;20580;-83
2022/05/29 03:26:13;;;;;;;10.10;3.05;;;9.60;99.90;;;;;;12207280;29;20066;-83
2022/05/29 03:32:15;;;;;;;14.27;3.45;;;9.70;99.90;;;;;;12186734;29;20064;-84
2022/05/29 03:38:18;;;;;;;12.32;3.30;;;9.70;99.90;;;;;;12164036;29;20563;-82
2022/05/29 03:44:23;;;;;;;10.20;3.00;;;9.60;99.90;;;;;;12138909;29;20092;-84
2022/05/29 03:50:25;;;;;;;8.10;2.95;;;9.50;99.90;;;;;;12142397;29;20150;-82
2022/05/29 03:56:27;;;;;;;12.38;3.13;;;9.40;99.90;;;;;;12169811;29;20067;-83
2022/05/29 04:02:29;;;;;;;12.35;3.25;;;9.20;99.90;;;;;;12189209;29;20626;-83
2022/05/29 04:14:51;;;;;;;12.98;3.58;;;9.40;99.90;;;;;;12166083;29;20689;-83
2022/05/29 04:20:53;;;;;;;14.00;3.38;;;9.40;99.90;;;;;;12162723;29;20063;-83
2022/05/29 04:26:55;;;;;;;15.65;4.75;;;9.30;99.90;;;;;;12167891;29;20048;-84
2022/05/29 04:32:59;;;;;;;9.68;3.20;;;9.30;99.90;;;;;;12181850;29;20056;-83
2022/05/29 04:39:01;;;;;;;10.38;3.30;;;9.50;99.90;;;;;;12165039;29;20106;-84
2022/05/29 04:45:03;;;;;;;10.93;2.92;;;9.50;99.90;;;;;;12153148;29;20303;-83
2022/05/29 04:51:06;;;;;;;9.38;3.47;;;9.50;99.90;;;;;;12159062;29;20135;-83
2022/05/29 04:57:09;;;;;;;9.10;3.30;;;9.40;99.90;;;;;;12149342;29;20064;-83
2022/05/29 05:03:11;;;;;;;12.63;3.25;;;9.40;99.90;;;;;;12167137;29;20048;-83
2022/05/29 05:09:13;;;;;;;13.38;3.50;;;9.40;99.90;;;;;;12159750;29;20048;-83
2022/05/29 05:15:16;;;;;;;18.10;3.70;;;9.30;99.90;;;;;;12151085;29;20079;-83
2022/05/29 05:21:17;;;;;;;7.28;2.88;;;9.30;99.90;;;;;;12160987;29;20071;-83
2022/05/29 05:27:20;;;;;;;11.93;3.50;;;9.40;99.90;;;;;;12178700;29;20055;-84
2022/05/29 05:33:22;;;;;;;14.52;3.35;;;9.40;99.90;;;;;;12186837;29;20079;-85
2022/05/29 05:39:24;;;;;;;14.10;3.10;;;9.40;99.90;;;;;;12176022;29;20191;-83
2022/05/29 05:45:26;;;;;;;15.88;3.85;;;9.40;99.90;;;;;;12169119;29;20182;-85
2022/05/29 05:51:27;;;;;;;11.55;3.63;;;9.50;99.90;;;;;;12175505;29;20080;-84
2022/05/29 05:57:29;;;;;;;12.23;4.00;;;9.40;99.90;;;;;;12150691;29;20056;-84
2022/05/29 06:03:31;;;;;;;14.80;3.90;;;9.50;99.90;;;;;;12152007;29;20580;-85
2022/05/29 06:09:34;;;;;;;18.92;5.03;;;9.50;99.90;;;;;;12190937;29;20542;-83
2022/05/29 06:15:36;;;;;;;9.70;4.63;;;9.50;99.90;;;;;;12151071;29;20076;-86
2022/05/29 06:21:38;;;;;;;11.73;4.85;;;9.50;99.90;;;;;;12158204;29;20052;-83
2022/05/29 06:27:43;;;;;;;10.88;5.18;;;9.60;99.90;;;;;;12168323;29;20077;-84
2022/05/29 06:33:45;;;;;;;17.50;6.38;;;9.50;99.90;;;;;;12165482;29;20154;-83
2022/05/29 06:39:47;;;;;;;14.32;5.82;;;9.50;99.90;;;;;;12175716;29;20052;-83
2022/05/29 06:45:56;;;;;;;13.60;6.43;;;9.50;99.90;;;;;;12154456;29;20068;-84
2022/05/29 08:10:36;;;;;;;8.07;2.92;;;10.00;99.90;;;;;;12247387;28;20110;-41
2022/05/29 08:16:39;;;;;;;11.18;3.47;;;10.00;99.90;;;;;;12123992;29;20053;-41
2022/05/29 09:09:43;;;;;;;6.65;2.90;;;10.50;99.90;;;;;;12240277;28;20503;-84
2022/05/29 09:15:50;;;;;;;8.77;2.03;;;10.60;99.90;;;;;;12226892;29;20494;-84
2022/05/29 09:21:58;;;;;;;8.43;2.22;;;10.60;99.90;;;;;;12222417;29;20070;-83
2022/05/29 09:28:09;;;;;;;8.95;1.95;;;10.70;99.90;;;;;;12227804;29;20048;-84
2022/05/29 09:41:45;;;;;;;8.68;1.65;;;10.40;99.90;;;;;;12215179;29;20046;-84
2022/05/29 09:55:05;;;;;;;7.00;1.42;;;10.50;99.90;;;;;;12233666;29;20060;-84
2022/05/29 10:01:09;;;;;;;6.63;1.55;;;10.40;99.90;;;;;;12227868;29;20113;-83
2022/05/29 10:07:33;;;;;;;8.05;1.63;;;10.00;99.90;;;;;;12218604;29;20074;-83
2022/05/29 10:13:41;;;;;;;9.38;1.65;;;10.30;99.90;;;;;;12225720;29;20166;-83
2022/05/29 10:19:45;;;;;;;8.85;1.70;;;10.10;99.90;;;;;;12215707;29;20087;-84
2022/05/29 10:26:01;;;;;;;5.25;1.65;;;10.20;99.90;;;;;;12231672;29;20067;-84
2022/05/29 10:32:07;;;;;;;11.70;1.52;;;10.40;99.90;;;;;;12254847;29;20558;-83
2022/05/29 10:38:24;;;;;;;6.20;1.85;;;10.40;99.90;;;;;;12227026;29;20147;-84
2022/05/29 10:44:44;;;;;;;8.73;1.98;;;10.60;99.90;;;;;;12226891;29;20056;-83
2022/05/29 10:51:08;;;;;;;9.60;2.05;;;10.50;99.90;;;;;;12201043;29;20063;-85
2022/05/29 10:57:43;;;;;;;5.78;1.80;;;10.90;99.90;;;;;;12180006;29;20139;-84
2022/05/29 11:04:11;;;;;;;8.32;1.80;;;11.00;99.90;;;;;;12221161;29;20055;-83
2022/05/29 11:10:35;;;;;;;7.65;1.98;;;11.00;99.90;;;;;;12197438;29;20567;-85
2022/05/29 11:16:55;;;;;;;8.20;1.88;;;11.20;99.90;;;;;;12186328;29;20055;-84
2022/05/29 11:23:16;;;;;;;6.68;1.75;;;11.00;99.90;;;;;;12188801;29;20123;-83
2022/05/29 11:29:36;;;;;;;10.20;1.92;;;10.70;99.90;;;;;;12183129;29;20064;-83
2022/05/29 11:36:16;;;;;;;5.38;1.70;;;10.50;99.90;;;;;;12188507;29;20489;-83
2022/05/29 11:42:48;;;;;;;8.70;2.20;;;10.60;99.90;;;;;;12189830;29;20103;-83
2022/05/29 11:55:41;;;;;;;5.35;1.30;;;10.60;99.90;;;;;;12185656;29;20139;-83
2022/05/29 12:01:48;;;;;;;5.57;1.13;;;10.70;99.90;;;;;;12194919;29;20063;-84
2022/05/29 12:08:43;;;;;;;3.25;1.00;;;10.80;99.90;;;;;;12212288;29;20123;-84
2022/05/29 12:15:16;;;;;;;5.05;1.17;;;10.90;99.90;;;;;;12173145;29;20056;-83
2022/05/29 12:21:31;;;;;;;8.82;1.10;;;10.80;99.90;;;;;;12193995;29;20515;-84
2022/05/29 12:27:34;;;;;;;7.68;1.27;;;10.80;99.90;;;;;;12184510;29;20108;-84
2022/05/29 12:33:36;;;;;;;4.53;1.05;;;10.90;99.90;;;;;;12198972;29;20067;-84
2022/05/29 12:39:41;;;;;;;4.70;0.88;;;11.00;99.90;;;;;;12184182;29;20130;-84
2022/05/29 12:46:04;;;;;;;4.22;0.85;;;11.20;99.90;;;;;;12183249;29;20080;-84
2022/05/29 12:52:37;;;;;;;5.85;1.30;;;11.20;99.90;;;;;;12208136;29;20060;-83
2022/05/29 12:59:08;;;;;;;5.43;1.10;;;11.20;99.90;;;;;;12210787;29;20052;-83
2022/05/29 13:05:28;;;;;;;3.60;1.20;;;11.20;99.90;;;;;;12188132;29;20067;-84
2022/05/29 13:11:34;;;;;;;4.32;1.20;;;11.20;99.90;;;;;;12197276;29;20052;-84
2022/05/29 13:17:38;;;;;;;6.10;1.40;;;11.10;99.90;;;;;;12198895;29;20072;-83
2022/05/29 13:23:52;;;;;;;3.88;0.95;;;10.80;99.90;;;;;;12214283;29;20200;-84
2022/05/29 13:29:57;;;;;;;3.88;0.82;;;10.90;99.90;;;;;;12188865;29;20416;-84
2022/05/29 13:35:59;;;;;;;2.63;0.80;;;10.90;99.90;;;;;;12209844;29;20064;-83
2022/05/29 13:42:10;;;;;;;2.35;0.80;;;11.00;99.90;;;;;;12200045;29;20052;-84
2022/05/29 13:48:26;;;;;;;4.13;0.70;;;11.10;99.90;;;;;;12205995;29;20316;-84
2022/05/29 13:54:31;;;;;;;3.67;0.80;;;11.20;99.90;;;;;;12210943;29;20059;-85
2022/05/29 14:07:31;;;;;;;3.42;0.68;;;11.40;99.90;;;;;;12188554;29;20563;-84
2022/05/29 14:13:44;;;;;;;3.63;0.70;;;11.40;99.90;;;;;;12197892;29;20147;-84
2022/05/29 14:20:14;;;;;;;3.13;0.85;;;11.50;99.90;;;;;;12180606;29;20484;-84
2022/05/29 14:26:56;;;;;;;2.70;0.80;;;11.60;99.90;;;;;;12206374;29;20059;-84
2022/05/29 14:33:21;;;;;;;2.30;0.70;;;11.60;99.90;;;;;;12178177;29;20048;-84
2022/05/29 14:39:29;;;;;;;3.25;0.75;;;11.40;99.90;;;;;;12192940;29;20089;-84
2022/05/29 14:45:32;;;;;;;3.30;0.80;;;11.40;99.90;;;;;;12201411;29;20137;-84
2022/05/29 14:51:58;;;;;;;3.45;0.95;;;11.40;99.90;;;;;;12183899;29;20071;-84
2022/05/29 14:58:00;;;;;;;6.43;1.65;;;11.30;99.90;;;;;;12196729;29;20085;-85
2022/05/29 15:04:03;;;;;;;6.35;1.70;;;11.40;99.90;;;;;;12204410;29;20048;-84
2022/05/29 15:10:34;;;;;;;4.50;1.80;;;11.40;99.90;;;;;;12204033;29;20060;-84
2022/05/29 15:16:39;;;;;;;8.40;2.40;;;11.50;99.90;;;;;;12186484;29;20048;-84
2022/05/29 15:29:08;;;;;;;7.03;1.08;;;11.00;99.90;;;;;;12189816;29;20063;-84
2022/05/29 15:35:27;;;;;;;3.17;0.88;;;11.00;99.90;;;;;;12183552;29;20081;-84
2022/05/29 15:42:04;;;;;;;6.53;1.55;;;11.00;99.90;;;;;;12188683;29;20146;-84
2022/05/29 15:48:27;;;;;;;5.15;1.10;;;11.00;99.90;;;;;;12170577;29;20615;-84
2022/05/29 15:54:34;;;;;;;8.15;1.60;;;10.90;99.90;;;;;;12182500;29;20200;-84
2022/05/29 16:00:36;;;;;;;6.25;1.20;;;11.00;99.90;;;;;;12187796;29;20060;-83
2022/05/29 16:06:41;;;;;;;3.95;1.30;;;11.00;99.90;;;;;;12189588;29;20106;-84
2022/05/29 16:12:45;;;;;;;7.78;1.20;;;10.90;99.90;;;;;;12183010;29;20052;-84
2022/05/29 16:19:05;;;;;;;3.28;0.80;;;10.90;99.90;;;;;;12203648;29;20105;-85
2022/05/29 16:25:19;;;;;;;6.07;2.05;;;10.80;99.90;;;;;;12197220;29;20056;-84
2022/05/29 16:31:21;;;;;;;5.43;1.20;;;10.80;99.90;;;;;;12202454;29;20044;-85
2022/05/29 16:50:29;;;;;;;5.75;1.33;;;11.00;99.90;;;;;;12205171;29;20135;-84
2022/05/29 16:56:58;;;;;;;5.85;1.50;;;10.90;99.90;;;;;;12215927;29;20056;-84
2022/05/29 17:03:23;;;;;;;6.72;0.90;;;10.90;99.90;;;;;;12205067;29;20059;-84
2022/05/29 17:15:43;;;;;;;7.57;3.55;;;10.70;99.90;;;;;;12198255;29;20127;-84
2022/05/29 17:21:52;;;;;;;7.03;1.20;;;10.70;99.90;;;;;;12187313;29;20511;-84
2022/05/29 17:28:17;;;;;;;6.53;1.20;;;10.70;99.90;;;;;;12207810;29;20094;-84
2022/05/29 17:34:26;;;;;;;7.63;1.50;;;10.60;99.90;;;;;;12176983;29;20532;-84
2022/05/29 17:40:44;;;;;;;5.28;1.25;;;10.50;99.90;;;;;;12193054;29;20048;-84
2022/05/29 17:46:45;;;;;;;7.53;1.38;;;10.30;99.90;;;;;;12192760;29;20131;-84
2022/05/29 17:53:25;;;;;;;6.00;1.27;;;10.30;99.90;;;;;;12241406;28;20058;-85
2022/05/29 17:59:31;;;;;;;3.80;1.05;;;10.20;99.90;;;;;;12219843;29;20066;-85
2022/05/29 18:05:34;;;;;;;2.90;1.17;;;9.90;99.90;;;;;;12196204;29;20143;-84
2022/05/29 18:11:39;;;;;;;6.03;2.13;;;9.90;99.90;;;;;;12190082;29;20408;-85
2022/05/29 18:17:41;;;;;;;11.35;3.10;;;9.90;99.90;;;;;;12207300;29;20052;-84
2022/05/29 18:23:43;;;;;;;4.97;1.77;;;10.00;99.90;;;;;;12187225;29;20052;-84
2022/05/29 18:29:45;;;;;;;8.85;1.40;;;10.00;99.90;;;;;;12189531;29;20147;-83
2022/05/29 18:35:47;;;;;;;5.05;1.30;;;9.80;99.90;;;;;;12190880;29;20049;-84
2022/05/29 18:41:49;;;;;;;8.05;1.70;;;9.80;99.90;;;;;;12188637;29;20056;-84
2022/05/29 18:47:51;;;;;;;9.32;1.73;;;9.70;99.90;;;;;;12199790;29;20056;-83
2022/05/29 18:53:53;;;;;;;11.73;1.90;;;9.70;99.90;;;;;;12204326;29;20187;-84
2022/05/29 19:00:01;;;;;;;9.85;2.03;;;9.90;99.90;;;;;;12201453;29;20504;-84
2022/05/29 19:06:11;;;;;;;8.35;1.80;;;9.90;99.90;;;;;;12192162;29;20463;-84
2022/05/29 19:12:13;;;;;;;7.68;2.15;;;9.90;99.90;;;;;;12168404;29;20072;-84
2022/05/29 19:18:14;;;;;;;15.27;2.00;;;9.90;99.90;;;;;;12181570;29;20092;-84
2022/05/29 19:24:16;;;;;;;9.40;1.95;;;9.90;99.90;;;;;;12182394;29;20204;-84
2022/05/29 19:30:22;;;;;;;10.18;2.13;;;10.00;99.90;;;;;;12191108;29;20048;-84
2022/05/29 19:36:26;;;;;;;9.60;2.13;;;10.00;99.90;;;;;;12209199;29;20060;-84
2022/05/29 19:42:28;;;;;;;6.68;1.50;;;9.50;99.90;;;;;;12200542;29;20060;-83
2022/05/29 19:48:30;;;;;;;6.80;1.42;;;9.40;99.90;;;;;;12185656;29;20528;-83
2022/05/29 19:54:32;;;;;;;6.50;1.80;;;9.50;99.90;;;;;;12194838;29;20052;-83
2022/05/29 20:00:34;;;;;;;7.43;1.35;;;9.50;99.90;;;;;;12205311;29;20485;-84
2022/05/29 20:06:38;;;;;;;10.38;1.92;;;9.60;99.90;;;;;;12198628;29;20188;-83
2022/05/29 20:12:40;;;;;;;10.68;1.95;;;9.60;99.90;;;;;;12233599;29;20056;-86
2022/05/29 20:18:42;;;;;;;11.15;2.70;;;9.70;99.90;;;;;;12232351;29;20108;-83
2022/05/29 20:24:44;;;;;;;9.35;1.73;;;9.70;99.90;;;;;;12202391;29;20547;-83
2022/05/29 20:30:49;;;;;;;7.05;1.60;;;9.70;99.90;;;;;;12189658;29;20106;-83
2022/05/29 20:36:51;;;;;;;6.43;1.70;;;9.60;99.90;;;;;;12199430;29;20168;-83
2022/05/29 20:42:53;;;;;;;13.07;1.65;;;9.60;99.90;;;;;;12191023;29;20404;-84
2022/05/29 20:48:56;;;;;;;9.25;1.60;;;9.70;99.90;;;;;;12192140;29;20060;-84
2022/05/29 20:54:58;;;;;;;6.13;1.30;;;9.80;99.90;;;;;;12186650;29;20052;-84
2022/05/29 21:01:14;;;;;;;8.00;1.50;;;9.90;99.90;;;;;;12196858;29;20055;-83
2022/05/29 21:07:18;;;;;;;9.63;1.88;;;9.80;99.90;;;;;;12210002;29;20210;-83
2022/05/29 21:13:19;;;;;;;8.93;1.63;;;9.80;99.90;;;;;;12203826;29;20052;-83
2022/05/29 21:19:24;;;;;;;10.07;1.60;;;9.70;99.90;;;;;;12193036;29;20079;-83
2022/05/29 21:25:26;;;;;;;6.18;1.30;;;9.60;99.90;;;;;;12202879;29;20107;-84
2022/05/29 21:31:29;;;;;;;10.40;1.80;;;9.70;99.90;;;;;;12191492;29;20131;-83
2022/05/29 21:43:51;;;;;;;7.82;1.60;;;9.60;99.90;;;;;;12212678;29;20103;-84
2022/05/29 21:49:53;;;;;;;6.88;1.25;;;9.70;99.90;;;;;;12209070;29;20193;-84
2022/05/29 21:55:55;;;;;;;12.20;1.67;;;9.70;99.90;;;;;;12219774;29;20048;-83
2022/05/29 22:01:57;;;;;;;11.57;1.92;;;9.60;99.90;;;;;;12192197;29;20526;-84
2022/05/29 22:07:58;;;;;;;6.57;1.27;;;9.40;99.90;;;;;;12186007;29;20112;-83
2022/05/29 22:14:00;;;;;;;11.13;1.90;;;9.50;99.90;;;;;;12188989;29;20201;-83
2022/05/29 22:20:03;;;;;;;7.65;2.10;;;9.60;99.90;;;;;;12183574;29;20283;-83
2022/05/29 22:26:06;;;;;;;6.72;1.80;;;9.40;99.90;;;;;;12182773;29;20068;-84
2022/05/29 22:32:13;;;;;;;8.05;1.80;;;9.10;99.90;;;;;;12184846;29;20139;-84
2022/05/29 22:38:15;;;;;;;11.02;2.20;;;9.10;99.90;;;;;;12199895;29;20056;-83
2022/05/29 22:44:16;;;;;;;8.15;1.52;;;9.30;99.90;;;;;;12201280;29;20100;-83
2022/05/29 22:50:47;;;;;;;8.80;1.55;;;9.40;99.90;;;;;;12203427;29;20067;-84
2022/05/29 22:56:49;;;;;;;7.35;2.00;;;9.40;99.90;;;;;;12204392;29;20459;-84
2022/05/29 23:03:30;;;;;;;9.00;1.45;;;9.40;99.90;;;;;;12203442;29;20080;-83
2022/05/29 23:09:32;;;;;;;6.47;1.65;;;9.30;99.90;;;;;;12174681;29;20072;-83
2022/05/29 23:15:36;;;;;;;11.93;2.45;;;9.20;99.90;;;;;;12188825;29;20063;-83
2022/05/29 23:22:04;;;;;;;8.50;1.50;;;9.50;99.90;;;;;;12237958;29;20048;-84
2022/05/29 23:28:07;;;;;;;6.88;1.52;;;9.50;99.90;;;;;;12194746;29;20087;-83
2022/05/29 23:34:09;;;;;;;12.18;1.50;;;9.40;99.90;;;;;;12219973;29;20115;-84
2022/05/29 23:40:17;;;;;;;9.95;1.83;;;9.20;99.90;;;;;;12193805;29;20115;-83
2022/05/29 23:46:23;;;;;;;9.20;1.48;;;9.40;99.90;;;;;;12199192;29;20087;-83
2022/05/29 23:52:25;;;;;;;7.07;1.58;;;9.40;99.90;;;;;;12186301;29;20127;-83
2022/05/29 23:58:27;;;;;;;13.10;2.00;;;9.50;99.90;;;;;;12192223;29;20516;-83
